Flight Track Log - Related Links

Times and Time Zones

All times are in EDT time to prevent confusion due to time zone crossing. See the EGF4393 flight status page for this flight to view local times or setup timezone preferences in your user account.

Time Position Orientation Groundspeed Altitude Reporting Facility
EDT Latitude Longitude Course Direction KTS MPH feet Rate Location/Type
Mon 03:47:32 PM 42.0167 -87.9667 352° North 197 227 2,800  Level Chicago TRACON
Mon 03:49:00 PM 42.2250 -87.9854 350° North  Level FlightAware Approximate
Mon 03:49:19 PM 42.1250 -88.0036 346° North 252 290 5,000  Level Chicago Center
Mon 03:50:00 PM 42.3128 -88.0073 350° North  Level FlightAware Approximate
Mon 03:50:21 PM 42.1961 -87.9964 North 258 297 6,800  Level Chicago Center
Mon 03:51:00 PM 42.3982 -88.0407 340° North  Level FlightAware Approximate
Mon 03:51:23 PM 42.2672 -88.0006 358° North 258 297 9,100  Level Chicago Center
Mon 03:52:00 PM 42.4854 -88.0638 352° North  Level FlightAware Approximate
Mon 03:52:26 PM 42.3550 -88.0064 357° North 276 318 11,200  Level Chicago Center
Mon 03:53:27 PM 42.4406 -88.0089 359° North 303 349 12,800 1,610 Climbing Chicago Center
Mon 03:54:29 PM 42.5228 -88.0528 339° North 320 368 14,500 1,742 Climbing Chicago Center
Mon 03:55:31 PM 42.6153 -88.1203 332° Northwest 323 372 16,400 1,632 Climbing Chicago Center
Mon 03:56:34 PM 42.6956 -88.1742 334° Northwest 322 371 17,900 1,536 Climbing Chicago Center
Mon 03:57:36 PM 42.7731 -88.2281 333° Northwest 314 361 19,600 1,016 Climbing Chicago Center
Mon 03:58:38 PM 42.8544 -88.2844 333° Northwest 326 375 20,000 194 Climbing Chicago Center
Mon 03:59:40 PM 42.9447 -88.3483 333° Northwest 358 412 20,000  Level Chicago Center
Mon 04:00:42 PM 43.0564 -88.4247 333° Northwest 379 436 20,000  Level Chicago Center
Mon 04:01:44 PM 43.1519 -88.4917 333° Northwest 382 440 20,000  Level Chicago Center
Mon 04:02:46 PM 43.2461 -88.5578 333° Northwest 378 435 20,000  Level Chicago Center
Mon 04:03:48 PM 43.3417 -88.6261 333° Northwest 380 437 20,000 -48 Level Chicago Center
Mon 04:04:50 PM 43.4389 -88.6950 333° Northwest 385 443 19,900 -532 Descending Chicago Center
Mon 04:05:52 PM 43.5339 -88.7622 333° Northwest 378 435 18,900 -1,016 Descending Chicago Center
Mon 04:06:54 PM 43.6269 -88.8283 333° Northwest 376 433 17,800 -1,016 Descending Chicago Center
Mon 04:07:56 PM 43.7189 -88.8936 333° Northwest 372 428 16,800 -1,065 Descending Chicago Center
Mon 04:08:58 PM 43.8244 -88.9697 333° Northwest 367 422 15,600 -1,065 Descending Chicago Center
Mon 04:10:00 PM 43.9139 -89.0333 333° Northwest 362 417 14,600 -919 Descending Chicago Center
Mon 04:11:02 PM 44.0044 -89.0997 332° Northwest 365 420 13,700 -989 Descending Chicago Center
Mon 04:11:31 PM 44.0547 -89.1361 333° Northwest 376 433 13,100 -1,065 Descending Minneapolis Center
Mon 04:12:04 PM 44.0986 -89.1664 334° Northwest 373 429 12,600 -1,258 Descending Chicago Center
Mon 04:12:33 PM 44.1511 -89.2056 332° Northwest 377 434 11,800 -1,319 Descending Minneapolis Center
Mon 04:13:35 PM 44.2406 -89.2719 332° Northwest 347 399 10,600 -1,210 Descending Minneapolis Center
Mon 04:14:37 PM 44.3106 -89.3239 332° Northwest 299 344 9,300 -1,645 Descending Minneapolis Center
Mon 04:15:39 PM 44.3803 -89.3744 333° Northwest 275 316 7,200 -2,274 Descending Minneapolis Center
Mon 04:16:41 PM 44.4483 -89.4244 332° Northwest 266 306 4,600 -2,032 Descending Minneapolis Center
Mon 04:17:43 PM 44.5144 -89.4742 332° Northwest 260 299 3,000 -774 Descending Minneapolis Center
Mon 04:18:45 PM 44.5808 -89.5219 333° Northwest 258 297 3,000  Level Minneapolis Center

Login

Don't have an account? Register now (free) for customized features, flight alerts, and more!